Time;durP1;ratioP1;P1;durP2;ratioP2;P2;SDS_P1;SDS_P2;PMS_P1;PMS_P2;Temp;Humidity;BMP_temperature;BMP_pressure;BME280_temperature;BME280_humidity;BME280_pressure;Samples;Min_cycle;Max_cycle;Signal;HPM_P1;HPM_P2
2021/08/17 00:01:22;;;;;;;1.47;0.57;;;13.00;99.90;;;;;;5055294;28;20188;-85
2021/08/17 00:03:48;;;;;;;0.40;0.10;;;13.00;99.90;;;;;;5070058;28;20222;-84
2021/08/17 00:06:13;;;;;;;0.40;0.40;;;12.90;99.90;;;;;;5052550;28;20197;-85
2021/08/17 00:08:39;;;;;;;0.20;0.20;;;12.90;99.90;;;;;;5052445;28;20204;-85
2021/08/17 00:11:05;;;;;;;0.43;0.37;;;13.00;99.90;;;;;;5046529;28;20181;-85
2021/08/17 00:13:31;;;;;;;0.13;0.13;;;12.90;99.90;;;;;;5069599;28;20180;-85
2021/08/17 00:15:56;;;;;;;0.17;0.17;;;12.90;99.90;;;;;;5070181;28;20194;-84
2021/08/17 00:18:22;;;;;;;0.20;0.20;;;12.90;99.90;;;;;;5070942;28;20291;-85
2021/08/17 00:20:47;;;;;;;0.20;0.20;;;13.00;99.90;;;;;;5055421;28;20185;-85
2021/08/17 00:23:13;;;;;;;0.47;0.47;;;13.10;99.90;;;;;;5070754;28;20191;-84
2021/08/17 00:25:42;;;;;;;0.10;0.10;;;13.00;99.90;;;;;;5052911;28;20266;-84
2021/08/17 00:28:11;;;;;;;0.30;0.30;;;13.10;99.90;;;;;;5052985;28;20220;-85
2021/08/17 00:30:38;;;;;;;0.20;0.20;;;13.10;99.90;;;;;;5070138;28;20209;-85
2021/08/17 00:33:03;;;;;;;1.77;0.20;;;13.20;99.90;;;;;;5056976;28;20192;-84
2021/08/17 00:35:29;;;;;;;0.27;0.27;;;13.20;99.90;;;;;;5067397;28;20618;-85
2021/08/17 00:37:55;;;;;;;0.27;0.20;;;13.20;99.90;;;;;;5058240;28;20238;-85
2021/08/17 00:40:20;;;;;;;0.63;0.63;;;13.20;99.90;;;;;;5060611;28;20241;-85
2021/08/17 00:42:47;;;;;;;0.40;0.40;;;13.10;99.90;;;;;;5051931;28;20181;-85
2021/08/17 00:45:18;;;;;;;0.20;0.20;;;13.00;99.90;;;;;;5056691;28;20189;-85
2021/08/17 00:47:43;;;;;;;0.10;0.10;;;13.00;99.90;;;;;;5055196;28;20241;-85
2021/08/17 00:50:09;;;;;;;0.10;0.10;;;13.00;99.90;;;;;;5071350;28;20262;-85
2021/08/17 00:52:35;;;;;;;0.10;0.10;;;12.90;99.90;;;;;;5056521;28;20187;-85
2021/08/17 00:55:01;;;;;;;1.17;0.83;;;12.90;99.90;;;;;;5059418;28;20601;-85
2021/08/17 00:57:27;;;;;;;0.10;0.10;;;12.90;99.90;;;;;;5056126;28;20273;-85
2021/08/17 00:59:52;;;;;;;0.10;0.10;;;12.90;99.90;;;;;;5056014;28;20282;-85
2021/08/17 01:02:18;;;;;;;0.30;0.10;;;12.90;99.90;;;;;;5072387;28;20181;-85
2021/08/17 01:04:44;;;;;;;0.13;0.13;;;12.90;99.90;;;;;;5072935;28;20185;-85
2021/08/17 01:07:10;;;;;;;0.10;0.10;;;13.00;99.90;;;;;;5079844;28;20201;-84
2021/08/17 01:09:36;;;;;;;1.63;0.30;;;12.90;99.90;;;;;;5073336;28;20764;-85
2021/08/17 01:12:03;;;;;;;1.60;0.50;;;12.90;99.90;;;;;;5057485;28;20278;-85
2021/08/17 01:14:29;;;;;;;0.10;0.10;;;12.90;99.90;;;;;;5073333;28;20183;-85
2021/08/17 01:16:55;;;;;;;7.13;0.20;;;12.90;99.90;;;;;;5058024;28;20187;-85
2021/08/17 01:19:22;;;;;;;0.10;0.10;;;13.00;99.90;;;;;;5072286;28;20200;-84
2021/08/17 01:21:48;;;;;;;0.23;0.23;;;13.00;99.90;;;;;;5073166;28;20207;-85
2021/08/17 01:24:14;;;;;;;0.17;0.17;;;13.10;99.90;;;;;;5069468;28;20178;-85
2021/08/17 01:26:40;;;;;;;0.20;0.20;;;13.10;99.90;;;;;;5055827;28;20211;-85
2021/08/17 01:29:10;;;;;;;0.30;0.30;;;13.20;99.90;;;;;;5072326;28;20739;-84
2021/08/17 01:31:36;;;;;;;0.00;0.00;;;13.10;99.90;;;;;;5066499;28;20184;-85
2021/08/17 01:34:02;;;;;;;0.20;0.20;;;13.20;99.90;;;;;;5071048;28;20261;-85
2021/08/17 01:36:27;;;;;;;0.20;0.20;;;13.20;99.90;;;;;;5061340;28;20267;-85
2021/08/17 01:38:53;;;;;;;0.50;0.50;;;13.30;99.90;;;;;;5073379;28;20254;-84
2021/08/17 01:41:19;;;;;;;0.20;0.20;;;13.30;99.90;;;;;;5072871;28;20184;-85
2021/08/17 01:43:45;;;;;;;0.20;0.20;;;13.40;99.90;;;;;;5055298;28;20189;-84
2021/08/17 01:46:11;;;;;;;2.43;0.10;;;13.50;99.90;;;;;;5055072;28;20181;-85
2021/08/17 01:48:37;;;;;;;0.40;0.40;;;13.50;99.90;;;;;;5057461;28;20209;-84
2021/08/17 01:51:04;;;;;;;0.10;0.10;;;13.50;99.90;;;;;;5072774;28;20185;-84
2021/08/17 01:53:30;;;;;;;0.20;0.20;;;13.50;99.90;;;;;;5055098;28;20209;-84
2021/08/17 01:55:57;;;;;;;0.10;0.10;;;13.50;99.90;;;;;;5053137;28;20234;-84
2021/08/17 01:58:26;;;;;;;2.07;0.60;;;13.50;99.90;;;;;;5071487;28;20291;-85
2021/08/17 02:00:53;;;;;;;0.10;0.10;;;13.50;99.90;;;;;;5070966;28;20192;-84
2021/08/17 02:03:18;;;;;;;0.40;0.40;;;13.50;99.90;;;;;;5072282;28;20191;-85
2021/08/17 02:05:45;;;;;;;0.20;0.20;;;13.50;99.90;;;;;;5054699;28;20181;-84
2021/08/17 02:08:10;;;;;;;4.43;0.53;;;13.50;99.90;;;;;;5052082;28;20591;-85
2021/08/17 02:10:36;;;;;;;0.30;0.30;;;13.50;99.90;;;;;;5047456;28;20185;-84
2021/08/17 02:13:03;;;;;;;0.27;0.27;;;13.50;99.90;;;;;;5055428;28;20306;-85
2021/08/17 02:15:29;;;;;;;0.93;0.63;;;13.40;99.90;;;;;;5062330;28;20189;-84
2021/08/17 02:17:54;;;;;;;0.10;0.10;;;13.50;99.90;;;;;;5071855;28;20669;-85
2021/08/17 02:20:20;;;;;;;0.47;0.47;;;13.60;99.90;;;;;;5072780;28;20276;-83
2021/08/17 02:22:45;;;;;;;1.70;0.47;;;13.70;99.90;;;;;;5054240;28;20184;-87
2021/08/17 02:25:11;;;;;;;0.20;0.20;;;13.60;99.90;;;;;;5072894;28;20176;-87
2021/08/17 02:27:37;;;;;;;0.67;0.20;;;13.70;99.90;;;;;;5055492;28;20640;-87
2021/08/17 02:30:04;;;;;;;0.10;0.10;;;13.70;99.90;;;;;;5073168;28;20181;-87
2021/08/17 02:32:30;;;;;;;0.40;0.40;;;13.60;99.90;;;;;;5071649;28;20235;-86
2021/08/17 02:34:56;;;;;;;0.17;0.10;;;13.50;99.90;;;;;;5066086;28;20182;-87
2021/08/17 02:37:24;;;;;;;0.20;0.20;;;13.30;99.90;;;;;;5065063;28;20180;-88
2021/08/17 02:39:50;;;;;;;0.30;0.30;;;13.30;99.90;;;;;;5052051;28;20188;-87
2021/08/17 02:42:18;;;;;;;0.10;0.10;;;13.30;99.90;;;;;;5072808;28;20290;-87
2021/08/17 02:44:44;;;;;;;0.10;0.10;;;13.40;99.90;;;;;;5053094;28;20679;-86
2021/08/17 02:47:10;;;;;;;0.27;0.27;;;13.20;99.90;;;;;;5054333;28;20209;-87
2021/08/17 02:49:36;;;;;;;0.33;0.33;;;13.30;99.90;;;;;;5055833;28;20212;-87
2021/08/17 02:52:04;;;;;;;0.47;0.20;;;13.30;99.90;;;;;;5055798;28;20326;-87
2021/08/17 02:54:35;;;;;;;4.07;0.20;;;13.30;99.90;;;;;;5055405;28;20192;-87
2021/08/17 02:57:01;;;;;;;0.20;0.20;;;13.40;99.90;;;;;;5053172;28;20185;-87
2021/08/17 02:59:26;;;;;;;0.33;0.30;;;13.40;99.90;;;;;;5070160;28;20265;-86
2021/08/17 03:01:52;;;;;;;5.10;0.80;;;13.40;99.90;;;;;;5055194;28;20252;-86
2021/08/17 03:04:18;;;;;;;0.10;0.10;;;13.30;99.90;;;;;;5054157;28;20193;-87
2021/08/17 03:06:44;;;;;;;0.40;0.40;;;13.20;99.90;;;;;;5069569;28;20711;-87
2021/08/17 03:09:10;;;;;;;0.10;0.10;;;13.20;99.90;;;;;;5054236;28;20205;-87
2021/08/17 03:11:36;;;;;;;0.20;0.20;;;13.00;99.90;;;;;;5072085;28;20181;-87
2021/08/17 03:14:01;;;;;;;0.33;0.20;;;12.90;99.90;;;;;;5071032;28;20180;-87
2021/08/17 03:16:27;;;;;;;0.03;0.03;;;12.90;99.90;;;;;;5050226;28;20193;-86
2021/08/17 03:18:53;;;;;;;0.37;0.37;;;12.90;99.90;;;;;;5063530;28;20800;-86
2021/08/17 03:21:19;;;;;;;0.10;0.10;;;12.90;99.90;;;;;;5071797;28;20279;-87
2021/08/17 03:23:45;;;;;;;0.23;0.10;;;12.80;99.90;;;;;;5054474;28;20193;-86
2021/08/17 03:26:11;;;;;;;0.23;0.10;;;12.90;99.90;;;;;;5054425;28;20209;-86
2021/08/17 03:28:37;;;;;;;0.40;0.27;;;12.90;99.90;;;;;;5071752;28;20201;-87
2021/08/17 03:31:03;;;;;;;0.40;0.30;;;12.90;99.90;;;;;;5072299;28;20235;-87
2021/08/17 03:33:28;;;;;;;0.10;0.10;;;13.00;99.90;;;;;;5053664;28;20185;-86
2021/08/17 03:35:54;;;;;;;0.20;0.20;;;13.00;99.90;;;;;;5052128;28;20232;-87
2021/08/17 03:38:20;;;;;;;0.37;0.30;;;13.00;99.90;;;;;;5053502;28;20212;-86
2021/08/17 03:40:45;;;;;;;1.10;0.43;;;13.00;99.90;;;;;;5063549;28;20840;-86
2021/08/17 03:43:12;;;;;;;0.20;0.20;;;13.10;99.90;;;;;;5049993;28;20242;-86
2021/08/17 03:45:38;;;;;;;0.10;0.10;;;13.00;99.90;;;;;;5058667;28;20553;-87
2021/08/17 03:48:04;;;;;;;1.60;0.50;;;13.00;99.90;;;;;;5070247;28;20227;-86
2021/08/17 03:50:31;;;;;;;0.20;0.20;;;13.00;99.90;;;;;;5072009;28;20700;-86
2021/08/17 03:52:57;;;;;;;0.20;0.20;;;12.90;99.90;;;;;;5056766;28;20317;-87
2021/08/17 03:55:23;;;;;;;3.03;0.40;;;12.90;99.90;;;;;;5060312;28;20245;-87
2021/08/17 03:57:49;;;;;;;0.20;0.20;;;12.90;99.90;;;;;;5052426;28;20200;-87
2021/08/17 04:00:19;;;;;;;0.40;0.40;;;12.90;99.90;;;;;;5055256;28;20184;-86
2021/08/17 04:02:45;;;;;;;0.33;0.33;;;13.00;99.90;;;;;;5054002;28;20231;-86
2021/08/17 04:05:12;;;;;;;1.60;1.07;;;12.90;99.90;;;;;;5049558;28;20196;-87
2021/08/17 04:07:38;;;;;;;0.83;0.30;;;12.90;99.90;;;;;;5050029;28;20265;-86
2021/08/17 04:10:09;;;;;;;0.20;0.20;;;12.90;99.90;;;;;;5053736;28;20187;-86
2021/08/17 04:12:35;;;;;;;0.50;0.40;;;12.80;99.90;;;;;;5071103;28;20179;-88
2021/08/17 04:15:01;;;;;;;1.03;0.60;;;12.80;99.90;;;;;;5043169;28;20727;-86
2021/08/17 04:17:27;;;;;;;0.17;0.17;;;12.70;99.90;;;;;;5065138;28;20193;-86
2021/08/17 04:19:53;;;;;;;0.33;0.27;;;12.70;99.90;;;;;;5072774;28;20180;-87
2021/08/17 04:22:18;;;;;;;1.60;0.80;;;12.70;99.90;;;;;;5070663;28;20278;-86
2021/08/17 04:24:44;;;;;;;3.20;0.47;;;12.70;99.90;;;;;;5075322;28;20184;-86
2021/08/17 04:27:09;;;;;;;1.90;0.70;;;12.70;99.90;;;;;;5057847;28;20219;-87
2021/08/17 04:29:37;;;;;;;1.93;0.50;;;12.70;99.90;;;;;;5074649;28;20211;-87
2021/08/17 04:32:04;;;;;;;0.43;0.43;;;12.70;99.90;;;;;;5056297;28;20189;-86
2021/08/17 04:34:29;;;;;;;1.70;0.10;;;12.60;99.90;;;;;;5056826;28;20188;-86
2021/08/17 04:37:02;;;;;;;0.77;0.30;;;12.60;99.90;;;;;;5062795;28;20230;-86
2021/08/17 04:39:28;;;;;;;0.43;0.43;;;12.60;99.90;;;;;;5064470;28;20229;-86
2021/08/17 04:41:53;;;;;;;0.73;0.60;;;12.60;99.90;;;;;;5057456;28;20671;-86
2021/08/17 04:44:19;;;;;;;0.20;0.20;;;12.60;99.90;;;;;;5053305;28;20261;-87
2021/08/17 04:46:45;;;;;;;0.60;0.60;;;12.60;99.90;;;;;;5051403;28;20214;-85
2021/08/17 04:49:11;;;;;;;0.60;0.43;;;12.70;99.90;;;;;;5041665;28;20216;-86
2021/08/17 04:51:37;;;;;;;0.63;0.50;;;12.70;99.90;;;;;;5070797;28;20206;-86
2021/08/17 04:54:03;;;;;;;0.20;0.20;;;12.70;99.90;;;;;;5056406;28;20656;-86
2021/08/17 04:56:28;;;;;;;1.47;0.63;;;12.80;99.90;;;;;;5056329;28;20648;-85
2021/08/17 04:58:54;;;;;;;0.43;0.43;;;12.90;99.90;;;;;;5069517;28;20221;-86
2021/08/17 05:01:21;;;;;;;0.40;0.40;;;13.00;99.90;;;;;;5055580;28;20197;-86
2021/08/17 05:03:46;;;;;;;0.17;0.17;;;13.10;99.90;;;;;;5074843;28;20188;-86
2021/08/17 05:06:12;;;;;;;0.40;0.40;;;13.10;99.90;;;;;;5056606;28;20192;-86
2021/08/17 05:08:38;;;;;;;0.13;0.13;;;13.20;99.90;;;;;;5055937;28;20295;-86
2021/08/17 05:11:04;;;;;;;0.50;0.50;;;13.30;99.90;;;;;;5074808;28;20551;-86
2021/08/17 05:13:30;;;;;;;0.40;0.30;;;13.30;99.90;;;;;;5056252;28;20185;-86
2021/08/17 05:15:55;;;;;;;0.83;0.67;;;13.50;99.90;;;;;;5056249;28;20238;-86
2021/08/17 05:18:21;;;;;;;1.50;0.60;;;13.50;99.90;;;;;;5055894;28;20284;-86
2021/08/17 05:20:46;;;;;;;0.30;0.30;;;13.60;99.90;;;;;;5054923;28;20195;-85
2021/08/17 05:23:12;;;;;;;0.67;0.67;;;13.60;99.90;;;;;;5061241;28;20189;-85
2021/08/17 05:25:38;;;;;;;1.20;1.07;;;13.70;99.90;;;;;;5092200;28;20191;-84
2021/08/17 05:28:03;;;;;;;0.43;0.43;;;13.80;99.90;;;;;;5072241;28;20213;-85
2021/08/17 05:30:29;;;;;;;1.03;0.60;;;14.00;99.90;;;;;;5073442;28;20192;-85
2021/08/17 05:32:55;;;;;;;1.07;1.07;;;14.10;99.90;;;;;;5045192;28;20197;-86
2021/08/17 05:35:23;;;;;;;0.40;0.40;;;14.10;99.90;;;;;;5055971;28;20214;-86
2021/08/17 05:37:53;;;;;;;0.43;0.43;;;14.10;99.90;;;;;;5066722;28;20206;-86
2021/08/17 05:40:19;;;;;;;1.10;0.70;;;14.20;99.90;;;;;;5065128;28;20234;-86
2021/08/17 05:42:45;;;;;;;0.50;0.50;;;14.40;99.90;;;;;;5066714;28;20193;-86
2021/08/17 05:45:12;;;;;;;0.20;0.20;;;14.50;99.90;;;;;;5053959;28;20181;-86
2021/08/17 05:47:43;;;;;;;0.90;0.87;;;14.60;99.90;;;;;;5049917;28;20295;-85
2021/08/17 05:50:09;;;;;;;0.23;0.23;;;14.70;99.90;;;;;;5073764;28;20184;-86
2021/08/17 05:52:37;;;;;;;0.73;0.40;;;14.60;99.90;;;;;;5052940;28;20241;-86
2021/08/17 05:55:04;;;;;;;1.63;1.07;;;14.60;99.90;;;;;;5073393;28;20193;-86
2021/08/17 05:57:30;;;;;;;0.73;0.70;;;14.60;99.90;;;;;;5071721;28;20185;-87
2021/08/17 05:59:56;;;;;;;0.67;0.67;;;14.60;99.90;;;;;;5070473;28;20203;-86
2021/08/17 06:02:22;;;;;;;0.83;0.63;;;14.50;99.90;;;;;;5052343;28;20177;-86
2021/08/17 06:04:47;;;;;;;0.53;0.53;;;14.50;99.90;;;;;;5066520;28;20245;-86
2021/08/17 06:07:17;;;;;;;0.73;0.73;;;14.50;99.90;;;;;;5054385;28;20210;-86
2021/08/17 06:09:43;;;;;;;1.67;1.07;;;14.70;99.90;;;;;;5050788;28;20212;-84
2021/08/17 06:12:08;;;;;;;0.70;0.70;;;14.80;99.90;;;;;;5051596;28;20181;-85
2021/08/17 06:14:35;;;;;;;0.37;0.37;;;14.90;99.90;;;;;;5054415;28;20190;-87
2021/08/17 06:17:01;;;;;;;1.80;0.70;;;14.80;99.90;;;;;;5072489;28;20557;-85
2021/08/17 06:19:26;;;;;;;0.47;0.47;;;14.90;99.90;;;;;;5054555;28;20212;-86
2021/08/17 06:21:52;;;;;;;1.37;0.70;;;15.00;99.90;;;;;;5054857;28;20616;-86
2021/08/17 06:24:19;;;;;;;1.67;1.57;;;15.20;99.90;;;;;;5059971;28;20634;-86
2021/08/17 06:26:44;;;;;;;0.80;0.63;;;15.40;99.90;;;;;;5059190;28;20300;-86
2021/08/17 06:29:10;;;;;;;0.47;0.47;;;15.60;99.90;;;;;;5064637;28;20208;-86
2021/08/17 06:31:36;;;;;;;0.40;0.30;;;15.40;99.90;;;;;;5075789;28;20688;-86
2021/08/17 06:34:01;;;;;;;3.70;1.03;;;15.50;99.90;;;;;;5055364;28;20220;-86
2021/08/17 06:36:28;;;;;;;3.30;1.73;;;15.60;99.90;;;;;;5057352;28;20239;-86
2021/08/17 06:38:54;;;;;;;0.73;0.60;;;15.70;99.90;;;;;;5067120;28;20214;-86
2021/08/17 06:41:19;;;;;;;1.83;0.47;;;15.70;99.90;;;;;;5072130;28;20200;-86
2021/08/17 06:43:45;;;;;;;0.40;0.40;;;15.60;99.90;;;;;;5053817;28;20257;-86
2021/08/17 06:46:11;;;;;;;1.10;0.63;;;15.50;99.90;;;;;;5054988;28;20242;-87
2021/08/17 06:48:37;;;;;;;1.07;0.73;;;15.40;99.90;;;;;;5054122;28;20248;-85
2021/08/17 06:51:03;;;;;;;0.57;0.57;;;15.40;99.90;;;;;;5050068;28;20285;-86
2021/08/17 06:53:29;;;;;;;2.80;0.83;;;15.40;99.90;;;;;;5049900;28;20212;-87
2021/08/17 06:55:54;;;;;;;1.50;1.40;;;15.30;99.90;;;;;;5045807;28;20653;-86
2021/08/17 06:58:20;;;;;;;0.57;0.30;;;15.20;99.90;;;;;;5054446;28;20221;-86
2021/08/17 07:00:47;;;;;;;1.40;1.30;;;15.30;99.90;;;;;;5054930;28;20323;-86
2021/08/17 07:03:13;;;;;;;4.87;1.00;;;15.40;99.90;;;;;;5054735;28;20189;-87
2021/08/17 07:05:42;;;;;;;1.30;0.97;;;15.40;99.90;;;;;;5054836;28;20280;-86
2021/08/17 07:08:09;;;;;;;0.50;0.50;;;15.40;99.90;;;;;;5054377;28;20597;-86
2021/08/17 07:10:35;;;;;;;2.60;1.47;;;15.50;99.90;;;;;;5072584;28;20228;-86
2021/08/17 07:13:01;;;;;;;3.40;0.70;;;15.60;99.90;;;;;;5054575;28;20699;-87
2021/08/17 07:15:26;;;;;;;2.30;1.10;;;15.60;99.90;;;;;;5071987;28;20181;-86
2021/08/17 07:17:52;;;;;;;1.33;0.70;;;15.50;99.90;;;;;;5072124;28;20204;-87
2021/08/17 07:20:18;;;;;;;0.60;0.60;;;15.60;99.90;;;;;;5072292;28;20185;-85
2021/08/17 07:22:44;;;;;;;2.50;1.00;;;15.70;99.90;;;;;;5072250;28;20587;-86
2021/08/17 07:25:10;;;;;;;2.20;1.23;;;15.90;99.90;;;;;;5058509;28;20711;-86
2021/08/17 07:27:36;;;;;;;0.60;0.30;;;16.10;99.90;;;;;;5064268;28;20216;-86
2021/08/17 07:30:04;;;;;;;3.60;0.63;;;16.40;99.90;;;;;;5068671;28;20186;-86
2021/08/17 07:32:30;;;;;;;2.87;0.97;;;16.70;99.90;;;;;;5073038;28;20186;-86
2021/08/17 07:34:55;;;;;;;1.53;0.47;;;16.90;99.90;;;;;;5056421;28;20350;-86
2021/08/17 07:37:21;;;;;;;1.20;1.10;;;17.10;99.90;;;;;;5053801;28;20183;-87
2021/08/17 07:39:46;;;;;;;3.13;1.00;;;17.00;99.90;;;;;;5056408;28;20297;-86
2021/08/17 07:42:12;;;;;;;4.50;1.27;;;16.90;99.90;;;;;;5054531;28;20188;-86
2021/08/17 07:44:38;;;;;;;0.70;0.70;;;16.90;99.90;;;;;;5070690;28;20199;-86
2021/08/17 07:47:03;;;;;;;2.53;1.13;;;17.10;99.90;;;;;;5071320;28;20625;-87
2021/08/17 07:49:29;;;;;;;2.27;0.63;;;17.50;99.90;;;;;;5051918;28;20565;-87
2021/08/17 07:51:54;;;;;;;0.87;0.87;;;17.70;99.90;;;;;;5052989;28;20195;-87
2021/08/17 07:54:20;;;;;;;2.40;0.70;;;18.10;99.90;;;;;;5050468;28;20189;-86
2021/08/17 07:56:49;;;;;;;0.93;0.90;;;18.00;99.90;;;;;;5068110;28;20267;-88
2021/08/17 07:59:16;;;;;;;1.07;0.80;;;18.10;99.90;;;;;;5050926;28;20266;-87
2021/08/17 08:01:42;;;;;;;1.10;0.70;;;18.10;99.90;;;;;;5054141;28;20282;-87
2021/08/17 08:04:07;;;;;;;0.83;0.83;;;18.10;99.90;;;;;;5053614;28;20281;-87
2021/08/17 08:06:33;;;;;;;0.57;0.50;;;18.20;99.90;;;;;;5082429;28;20302;-87
2021/08/17 08:08:59;;;;;;;1.27;1.20;;;18.20;99.90;;;;;;5053089;28;20239;-84
2021/08/17 08:11:24;;;;;;;1.43;0.90;;;18.40;99.90;;;;;;5055134;28;20189;-86
2021/08/17 08:13:50;;;;;;;2.07;1.13;;;18.70;99.90;;;;;;5047384;28;20217;-83
2021/08/17 08:16:16;;;;;;;1.80;0.90;;;19.10;99.90;;;;;;5058890;28;20613;-84
2021/08/17 08:18:41;;;;;;;0.50;0.50;;;19.00;99.90;;;;;;5050631;28;20287;-83
2021/08/17 08:21:14;;;;;;;4.27;1.73;;;19.30;99.90;;;;;;5066398;28;20196;-84
2021/08/17 08:23:40;;;;;;;3.20;1.37;;;19.50;99.90;;;;;;5070494;28;20531;-84
2021/08/17 08:26:06;;;;;;;0.63;0.63;;;19.50;99.90;;;;;;5070336;28;20181;-84
2021/08/17 08:28:31;;;;;;;0.77;0.53;;;19.40;99.90;;;;;;5068170;28;20266;-83
2021/08/17 08:30:57;;;;;;;1.87;1.37;;;19.70;99.90;;;;;;5053757;28;20235;-84
2021/08/17 08:33:22;;;;;;;1.23;0.77;;;19.60;99.90;;;;;;5053624;28;20213;-83
2021/08/17 08:35:50;;;;;;;1.20;1.10;;;19.90;99.90;;;;;;5053578;28;20221;-84
2021/08/17 08:38:16;;;;;;;1.60;1.27;;;20.10;99.90;;;;;;5053104;28;20240;-82
2021/08/17 08:40:45;;;;;;;5.63;1.97;;;20.10;99.90;;;;;;5053144;28;20224;-82
2021/08/17 08:43:12;;;;;;;1.67;1.50;;;19.90;99.90;;;;;;5070808;28;20535;-82
2021/08/17 08:45:38;;;;;;;2.00;0.90;;;19.90;99.90;;;;;;5053083;28;20653;-82
2021/08/17 08:48:05;;;;;;;1.70;0.90;;;19.90;99.90;;;;;;5069988;28;20221;-82
2021/08/17 08:50:33;;;;;;;2.13;1.40;;;20.10;99.90;;;;;;5070802;28;20212;-83
2021/08/17 08:53:00;;;;;;;1.67;1.17;;;20.10;99.90;;;;;;5060957;28;20182;-83
2021/08/17 08:55:26;;;;;;;3.10;1.27;;;20.00;99.90;;;;;;5060923;28;20193;-82
2021/08/17 08:57:52;;;;;;;0.57;0.57;;;19.80;99.90;;;;;;5070460;28;20205;-82
2021/08/17 09:00:17;;;;;;;1.03;0.93;;;19.70;99.90;;;;;;5070348;28;20186;-81
2021/08/17 09:02:43;;;;;;;0.63;0.63;;;19.60;99.90;;;;;;5055551;28;20279;-82
2021/08/17 09:05:10;;;;;;;1.30;1.20;;;19.40;99.90;;;;;;5056675;28;20188;-82
2021/08/17 09:07:36;;;;;;;3.23;1.93;;;19.40;99.90;;;;;;5054398;28;20300;-83
2021/08/17 09:10:04;;;;;;;1.30;1.20;;;19.50;99.90;;;;;;5056607;28;20656;-82
2021/08/17 09:12:39;;;;;;;0.97;0.93;;;19.40;99.90;;;;;;5056291;28;20272;-82
2021/08/17 09:15:20;;;;;;;1.90;1.63;;;19.40;99.90;;;;;;5055448;28;20195;-82
2021/08/17 09:18:06;;;;;;;1.40;1.30;;;19.40;99.90;;;;;;5069633;28;20268;-82
2021/08/17 09:20:39;;;;;;;2.37;0.80;;;19.30;99.90;;;;;;5049175;28;20192;-82
2021/08/17 09:23:28;;;;;;;2.30;0.57;;;19.30;99.90;;;;;;5050285;28;20189;-82
2021/08/17 09:25:57;;;;;;;1.23;1.13;;;19.30;99.90;;;;;;5052508;28;20192;-82
2021/08/17 09:28:37;;;;;;;1.60;0.53;;;19.30;99.90;;;;;;5061065;28;20228;-84
2021/08/17 09:31:23;;;;;;;0.80;0.80;;;19.20;99.90;;;;;;5060671;28;20189;-84
2021/08/17 09:33:49;;;;;;;6.17;1.30;;;19.20;99.90;;;;;;5057045;28;20237;-85
2021/08/17 09:36:15;;;;;;;0.53;0.53;;;19.30;99.90;;;;;;5056140;28;20177;-85
2021/08/17 09:38:40;;;;;;;1.60;1.00;;;19.50;99.90;;;;;;5045385;28;20208;-85
2021/08/17 09:41:23;;;;;;;0.53;0.50;;;19.80;99.90;;;;;;5055671;28;20181;-84
2021/08/17 09:44:02;;;;;;;3.03;1.67;;;20.00;99.90;;;;;;5071538;28;20192;-84
2021/08/17 09:46:33;;;;;;;3.23;1.23;;;20.10;99.90;;;;;;5057709;28;20907;-85
2021/08/17 09:49:18;;;;;;;1.90;1.17;;;20.10;99.90;;;;;;5043425;28;20597;-84
2021/08/17 09:51:43;;;;;;;0.97;0.83;;;20.40;99.90;;;;;;5071791;28;20599;-85
2021/08/17 09:54:15;;;;;;;1.50;0.93;;;20.50;99.90;;;;;;5055863;28;20268;-84
2021/08/17 09:56:41;;;;;;;2.40;1.10;;;20.60;99.90;;;;;;5055818;28;20185;-84
2021/08/17 09:59:07;;;;;;;1.10;1.00;;;20.50;99.90;;;;;;5055253;28;20220;-84
2021/08/17 10:01:34;;;;;;;1.13;1.03;;;20.50;99.90;;;;;;5055742;28;20184;-84
2021/08/17 10:04:01;;;;;;;0.60;0.60;;;20.30;99.90;;;;;;5055335;28;20675;-84
2021/08/17 10:06:27;;;;;;;1.70;1.27;;;20.00;99.90;;;;;;5056091;28;20272;-84
2021/08/17 10:08:57;;;;;;;1.30;0.90;;;19.90;99.90;;;;;;5055217;28;20205;-85
2021/08/17 10:11:23;;;;;;;0.93;0.87;;;19.80;99.90;;;;;;5046044;28;20235;-85
2021/08/17 10:13:49;;;;;;;0.87;0.87;;;19.80;99.90;;;;;;5059143;28;20188;-85
2021/08/17 10:16:18;;;;;;;1.30;1.20;;;19.80;99.90;;;;;;5060268;28;20177;-84
2021/08/17 10:18:45;;;;;;;3.90;1.37;;;19.90;99.90;;;;;;5045713;28;20208;-85
2021/08/17 10:21:11;;;;;;;1.53;1.17;;;20.00;99.90;;;;;;5047037;28;20181;-84
2021/08/17 10:23:43;;;;;;;1.13;1.03;;;19.90;99.90;;;;;;5054767;28;20196;-85
2021/08/17 10:26:24;;;;;;;3.00;0.73;;;19.90;99.90;;;;;;5072990;28;20715;-84
2021/08/17 10:28:49;;;;;;;1.03;0.60;;;19.90;99.90;;;;;;5072606;28;20204;-84
2021/08/17 10:31:15;;;;;;;1.43;0.87;;;20.00;99.90;;;;;;5054866;28;20188;-84
2021/08/17 10:33:51;;;;;;;1.27;1.13;;;20.10;99.90;;;;;;5061553;28;20271;-83
2021/08/17 10:36:43;;;;;;;1.97;1.70;;;20.10;99.90;;;;;;5062863;28;20193;-85
2021/08/17 10:39:18;;;;;;;1.00;0.60;;;20.10;99.90;;;;;;5071507;28;20254;-84
2021/08/17 10:41:48;;;;;;;0.67;0.67;;;20.30;99.90;;;;;;5054298;28;20272;-84
2021/08/17 10:44:32;;;;;;;2.23;0.93;;;20.50;99.90;;;;;;5068325;28;20215;-84
2021/08/17 10:47:10;;;;;;;0.87;0.87;;;21.20;99.90;;;;;;5053955;28;20217;-84
2021/08/17 10:49:35;;;;;;;1.03;0.53;;;21.40;99.90;;;;;;5059882;28;20216;-86
2021/08/17 10:52:07;;;;;;;1.33;1.03;;;21.80;99.90;;;;;;5072637;28;20650;-84
2021/08/17 10:54:35;;;;;;;1.37;1.17;;;22.10;99.90;;;;;;5049798;28;20187;-86
2021/08/17 10:57:21;;;;;;;0.87;0.73;;;22.20;99.90;;;;;;5072374;28;20176;-84
2021/08/17 10:59:48;;;;;;;0.90;0.90;;;22.20;99.90;;;;;;5055743;28;20226;-84
2021/08/17 11:02:15;;;;;;;1.23;1.13;;;22.10;99.90;;;;;;5064411;28;20220;-84
2021/08/17 11:04:41;;;;;;;1.47;0.83;;;21.80;99.90;;;;;;5069492;28;20185;-87
2021/08/17 11:07:31;;;;;;;1.33;0.53;;;21.60;99.90;;;;;;5070539;28;20284;-84
2021/08/17 11:09:59;;;;;;;0.93;0.53;;;21.60;99.90;;;;;;5051088;28;20208;-87
2021/08/17 11:12:38;;;;;;;0.93;0.93;;;21.60;99.90;;;;;;5053085;28;20268;-87
2021/08/17 11:15:06;;;;;;;3.07;1.43;;;21.40;99.90;;;;;;5050792;28;20184;-86
2021/08/17 11:17:33;;;;;;;1.43;1.33;;;21.40;99.90;;;;;;5048509;28;20185;-87
2021/08/17 11:19:58;;;;;;;0.70;0.70;;;21.30;99.90;;;;;;5052680;28;20200;-84
2021/08/17 11:22:29;;;;;;;1.63;0.87;;;21.30;99.90;;;;;;5068784;28;20197;-86
2021/08/17 11:25:00;;;;;;;0.90;0.90;;;21.00;99.90;;;;;;5048410;28;20189;-84
2021/08/17 11:27:35;;;;;;;0.93;0.60;;;21.00;99.90;;;;;;5069926;28;20212;-85
2021/08/17 11:30:06;;;;;;;3.20;0.57;;;20.80;99.90;;;;;;5057403;28;20794;-84
2021/08/17 11:32:34;;;;;;;0.80;0.80;;;20.90;99.90;;;;;;5067982;28;20541;-84
2021/08/17 11:35:02;;;;;;;1.23;0.90;;;21.10;99.90;;;;;;5052876;28;20280;-84
2021/08/17 11:37:29;;;;;;;0.30;0.30;;;21.00;99.90;;;;;;5051383;28;20195;-84
2021/08/17 11:39:59;;;;;;;3.43;0.97;;;21.10;99.90;;;;;;5055697;28;20193;-83
2021/08/17 11:42:26;;;;;;;1.80;1.13;;;21.10;99.90;;;;;;5051343;28;20276;-85
2021/08/17 11:45:06;;;;;;;0.50;0.50;;;20.90;99.90;;;;;;5057901;28;20595;-85
2021/08/17 11:47:32;;;;;;;0.70;0.50;;;20.90;99.90;;;;;;5053138;28;20311;-85
2021/08/17 11:50:02;;;;;;;0.73;0.60;;;20.70;99.90;;;;;;5052370;28;20560;-84
2021/08/17 11:52:40;;;;;;;0.37;0.30;;;20.90;99.90;;;;;;5053020;28;20219;-84
2021/08/17 11:55:09;;;;;;;3.60;0.80;;;20.70;99.90;;;;;;5051463;28;20213;-84
2021/08/17 11:57:42;;;;;;;0.37;0.37;;;20.70;99.90;;;;;;5063683;28;20196;-84
2021/08/17 12:00:15;;;;;;;0.50;0.50;;;20.70;99.90;;;;;;5052630;28;20199;-83
2021/08/17 12:02:51;;;;;;;1.30;0.80;;;20.50;99.90;;;;;;5052793;28;20194;-84
2021/08/17 12:05:22;;;;;;;1.40;0.77;;;20.60;99.90;;;;;;5065186;28;20184;-84
2021/08/17 12:07:50;;;;;;;1.60;0.87;;;20.60;99.90;;;;;;5068672;28;20212;-84
2021/08/17 12:10:17;;;;;;;0.43;0.43;;;20.60;99.90;;;;;;5051845;28;20185;-83
2021/08/17 12:13:02;;;;;;;0.63;0.53;;;20.50;99.90;;;;;;5052806;28;20181;-85
2021/08/17 12:15:29;;;;;;;0.97;0.87;;;20.40;99.90;;;;;;5052259;28;20184;-85
2021/08/17 12:17:56;;;;;;;1.00;0.90;;;20.20;99.90;;;;;;5063322;28;20211;-85
2021/08/17 12:20:22;;;;;;;0.40;0.40;;;20.10;99.90;;;;;;5052122;28;20196;-86
2021/08/17 12:22:48;;;;;;;1.40;0.90;;;20.00;99.90;;;;;;5070409;28;20235;-85
2021/08/17 12:25:25;;;;;;;0.60;0.60;;;19.90;99.90;;;;;;5049062;28;20597;-84
2021/08/17 12:27:56;;;;;;;1.50;0.77;;;19.90;99.90;;;;;;5057244;28;20634;-84
2021/08/17 12:30:26;;;;;;;1.87;1.03;;;19.90;99.90;;;;;;5051058;28;20204;-85
2021/08/17 12:32:57;;;;;;;1.13;0.77;;;20.00;99.90;;;;;;5041388;28;20555;-85
2021/08/17 12:35:31;;;;;;;1.13;0.50;;;19.90;99.90;;;;;;5053001;28;20193;-85
2021/08/17 12:38:13;;;;;;;0.60;0.60;;;19.80;99.90;;;;;;5079790;28;20200;-85
2021/08/17 12:40:52;;;;;;;0.40;0.40;;;19.80;99.90;;;;;;5062988;28;20251;-83
2021/08/17 12:43:23;;;;;;;0.70;0.60;;;19.70;99.90;;;;;;5055293;28;20188;-83
2021/08/17 12:45:49;;;;;;;0.60;0.37;;;19.60;99.90;;;;;;5071904;28;20183;-83
2021/08/17 12:48:17;;;;;;;0.40;0.40;;;19.50;99.90;;;;;;5061483;28;20304;-83
2021/08/17 12:50:44;;;;;;;0.43;0.40;;;19.50;99.90;;;;;;5072995;28;20185;-83